sensor_id;sensor_type;location;lat;lon;timestamp;P1;durP1;ratioP1;P2;durP2;ratioP2
60225;SDS011;46090;48.436;11.410;2023-04-25T00:02:12;2.42;;;0.20;;
60225;SDS011;46090;48.436;11.410;2023-04-25T00:04:39;1.30;;;0.20;;
60225;SDS011;46090;48.436;11.410;2023-04-25T00:07:06;1.05;;;0.20;;
60225;SDS011;46090;48.436;11.410;2023-04-25T00:09:33;1.30;;;0.20;;
60225;SDS011;46090;48.436;11.410;2023-04-25T00:12:00;1.95;;;0.22;;
60225;SDS011;46090;48.436;11.410;2023-04-25T00:14:28;0.90;;;0.20;;
60225;SDS011;46090;48.436;11.410;2023-04-25T00:16:55;1.50;;;0.20;;
60225;SDS011;46090;48.436;11.410;2023-04-25T00:19:22;2.17;;;0.30;;
60225;SDS011;46090;48.436;11.410;2023-04-25T00:21:49;1.65;;;0.22;;
60225;SDS011;46090;48.436;11.410;2023-04-25T00:24:16;1.33;;;0.20;;
60225;SDS011;46090;48.436;11.410;2023-04-25T00:26:42;1.60;;;0.30;;
60225;SDS011;46090;48.436;11.410;2023-04-25T00:29:09;0.45;;;0.20;;
60225;SDS011;46090;48.436;11.410;2023-04-25T00:31:36;1.02;;;0.20;;
60225;SDS011;46090;48.436;11.410;2023-04-25T00:34:03;2.03;;;0.30;;
60225;SDS011;46090;48.436;11.410;2023-04-25T00:36:30;1.23;;;0.20;;
60225;SDS011;46090;48.436;11.410;2023-04-25T00:38:56;0.63;;;0.10;;
60225;SDS011;46090;48.436;11.410;2023-04-25T00:41:24;0.95;;;0.20;;
60225;SDS011;46090;48.436;11.410;2023-04-25T00:43:52;2.00;;;0.30;;
60225;SDS011;46090;48.436;11.410;2023-04-25T00:46:20;1.63;;;0.20;;
60225;SDS011;46090;48.436;11.410;2023-04-25T00:48:47;1.73;;;0.40;;
60225;SDS011;46090;48.436;11.410;2023-04-25T00:51:14;0.80;;;0.20;;
60225;SDS011;46090;48.436;11.410;2023-04-25T00:53:43;1.83;;;0.20;;
60225;SDS011;46090;48.436;11.410;2023-04-25T00:56:09;0.98;;;0.25;;
60225;SDS011;46090;48.436;11.410;2023-04-25T00:58:36;1.38;;;0.25;;
60225;SDS011;46090;48.436;11.410;2023-04-25T01:01:03;0.70;;;0.20;;
60225;SDS011;46090;48.436;11.410;2023-04-25T01:03:32;1.42;;;0.15;;
60225;SDS011;46090;48.436;11.410;2023-04-25T01:05:59;3.58;;;0.40;;
60225;SDS011;46090;48.436;11.410;2023-04-25T01:08:26;1.75;;;0.30;;
60225;SDS011;46090;48.436;11.410;2023-04-25T01:10:53;1.13;;;0.20;;
60225;SDS011;46090;48.436;11.410;2023-04-25T01:13:20;1.00;;;0.30;;
60225;SDS011;46090;48.436;11.410;2023-04-25T01:15:46;1.90;;;0.30;;
60225;SDS011;46090;48.436;11.410;2023-04-25T01:18:14;1.30;;;0.30;;
60225;SDS011;46090;48.436;11.410;2023-04-25T01:20:40;0.85;;;0.10;;
60225;SDS011;46090;48.436;11.410;2023-04-25T01:23:08;1.08;;;0.30;;
60225;SDS011;46090;48.436;11.410;2023-04-25T01:25:34;1.17;;;0.28;;
60225;SDS011;46090;48.436;11.410;2023-04-25T01:28:01;1.00;;;0.20;;
60225;SDS011;46090;48.436;11.410;2023-04-25T01:30:28;1.27;;;0.20;;
60225;SDS011;46090;48.436;11.410;2023-04-25T01:32:56;1.23;;;0.20;;
60225;SDS011;46090;48.436;11.410;2023-04-25T01:35:23;1.17;;;0.30;;
60225;SDS011;46090;48.436;11.410;2023-04-25T01:37:52;1.60;;;0.30;;
60225;SDS011;46090;48.436;11.410;2023-04-25T01:40:19;0.93;;;0.20;;
60225;SDS011;46090;48.436;11.410;2023-04-25T01:42:47;1.33;;;0.30;;
60225;SDS011;46090;48.436;11.410;2023-04-25T01:45:14;1.67;;;0.30;;
60225;SDS011;46090;48.436;11.410;2023-04-25T01:47:41;1.35;;;0.20;;
60225;SDS011;46090;48.436;11.410;2023-04-25T01:50:10;1.08;;;0.20;;
60225;SDS011;46090;48.436;11.410;2023-04-25T01:52:37;0.80;;;0.20;;
60225;SDS011;46090;48.436;11.410;2023-04-25T01:55:05;2.42;;;0.47;;
60225;SDS011;46090;48.436;11.410;2023-04-25T01:57:34;0.35;;;0.10;;
60225;SDS011;46090;48.436;11.410;2023-04-25T02:00:03;1.10;;;0.17;;
60225;SDS011;46090;48.436;11.410;2023-04-25T02:02:38;1.83;;;0.20;;
60225;SDS011;46090;48.436;11.410;2023-04-25T02:05:21;1.75;;;0.22;;
60225;SDS011;46090;48.436;11.410;2023-04-25T02:07:48;1.05;;;0.20;;
60225;SDS011;46090;48.436;11.410;2023-04-25T02:10:15;2.05;;;0.28;;
60225;SDS011;46090;48.436;11.410;2023-04-25T02:13:05;1.30;;;0.20;;
60225;SDS011;46090;48.436;11.410;2023-04-25T02:16:07;1.25;;;0.20;;
60225;SDS011;46090;48.436;11.410;2023-04-25T02:18:37;1.80;;;0.20;;
60225;SDS011;46090;48.436;11.410;2023-04-25T02:21:05;1.75;;;0.38;;
60225;SDS011;46090;48.436;11.410;2023-04-25T02:23:32;0.57;;;0.17;;
60225;SDS011;46090;48.436;11.410;2023-04-25T02:25:59;1.27;;;0.20;;
60225;SDS011;46090;48.436;11.410;2023-04-25T02:28:26;1.98;;;0.22;;
60225;SDS011;46090;48.436;11.410;2023-04-25T02:30:52;0.93;;;0.10;;
60225;SDS011;46090;48.436;11.410;2023-04-25T02:33:19;0.88;;;0.28;;
60225;SDS011;46090;48.436;11.410;2023-04-25T02:35:47;1.00;;;0.20;;
60225;SDS011;46090;48.436;11.410;2023-04-25T02:38:14;1.90;;;0.28;;
60225;SDS011;46090;48.436;11.410;2023-04-25T02:40:41;1.55;;;0.20;;
60225;SDS011;46090;48.436;11.410;2023-04-25T02:43:07;0.73;;;0.20;;
60225;SDS011;46090;48.436;11.410;2023-04-25T02:45:34;0.52;;;0.10;;
60225;SDS011;46090;48.436;11.410;2023-04-25T02:48:02;1.55;;;0.25;;
60225;SDS011;46090;48.436;11.410;2023-04-25T02:50:31;2.00;;;0.20;;
60225;SDS011;46090;48.436;11.410;2023-04-25T02:52:57;1.08;;;0.25;;
60225;SDS011;46090;48.436;11.410;2023-04-25T02:55:29;1.08;;;0.20;;
60225;SDS011;46090;48.436;11.410;2023-04-25T02:57:56;1.55;;;0.20;;
60225;SDS011;46090;48.436;11.410;2023-04-25T03:00:35;1.42;;;0.20;;
60225;SDS011;46090;48.436;11.410;2023-04-25T03:03:02;1.40;;;0.30;;
60225;SDS011;46090;48.436;11.410;2023-04-25T03:05:29;1.00;;;0.20;;
60225;SDS011;46090;48.436;11.410;2023-04-25T03:07:55;1.70;;;0.28;;
60225;SDS011;46090;48.436;11.410;2023-04-25T03:10:22;1.25;;;0.20;;
60225;SDS011;46090;48.436;11.410;2023-04-25T03:12:49;0.77;;;0.20;;
60225;SDS011;46090;48.436;11.410;2023-04-25T03:15:16;1.15;;;0.20;;
60225;SDS011;46090;48.436;11.410;2023-04-25T03:17:43;1.40;;;0.20;;
60225;SDS011;46090;48.436;11.410;2023-04-25T03:20:10;0.75;;;0.20;;
60225;SDS011;46090;48.436;11.410;2023-04-25T03:22:37;0.88;;;0.20;;
60225;SDS011;46090;48.436;11.410;2023-04-25T03:25:03;0.65;;;0.20;;
60225;SDS011;46090;48.436;11.410;2023-04-25T03:27:31;0.95;;;0.30;;
60225;SDS011;46090;48.436;11.410;2023-04-25T03:29:57;15.05;;;1.42;;
60225;SDS011;46090;48.436;11.410;2023-04-25T03:32:24;4.25;;;0.30;;
60225;SDS011;46090;48.436;11.410;2023-04-25T03:34:51;1.58;;;0.20;;
60225;SDS011;46090;48.436;11.410;2023-04-25T03:37:18;1.88;;;0.30;;
60225;SDS011;46090;48.436;11.410;2023-04-25T03:39:44;5.10;;;0.55;;
60225;SDS011;46090;48.436;11.410;2023-04-25T03:42:11;1.73;;;0.35;;
60225;SDS011;46090;48.436;11.410;2023-04-25T03:44:38;4.20;;;0.40;;
60225;SDS011;46090;48.436;11.410;2023-04-25T03:47:04;6.93;;;0.60;;
60225;SDS011;46090;48.436;11.410;2023-04-25T03:49:33;6.72;;;0.45;;
60225;SDS011;46090;48.436;11.410;2023-04-25T03:52:02;2.53;;;0.40;;
60225;SDS011;46090;48.436;11.410;2023-04-25T03:54:35;6.55;;;0.40;;
60225;SDS011;46090;48.436;11.410;2023-04-25T03:57:05;0.82;;;0.17;;
60225;SDS011;46090;48.436;11.410;2023-04-25T03:59:36;3.05;;;0.30;;
60225;SDS011;46090;48.436;11.410;2023-04-25T04:02:02;2.88;;;0.30;;
60225;SDS011;46090;48.436;11.410;2023-04-25T04:04:31;2.08;;;0.30;;
60225;SDS011;46090;48.436;11.410;2023-04-25T04:06:59;3.25;;;0.20;;
60225;SDS011;46090;48.436;11.410;2023-04-25T04:09:29;1.65;;;0.30;;
60225;SDS011;46090;48.436;11.410;2023-04-25T04:11:58;2.65;;;0.50;;
60225;SDS011;46090;48.436;11.410;2023-04-25T04:14:25;1.80;;;0.30;;
60225;SDS011;46090;48.436;11.410;2023-04-25T04:16:54;1.67;;;0.20;;
60225;SDS011;46090;48.436;11.410;2023-04-25T04:19:21;3.63;;;0.40;;
60225;SDS011;46090;48.436;11.410;2023-04-25T04:22:01;5.32;;;0.28;;
60225;SDS011;46090;48.436;11.410;2023-04-25T04:24:28;3.03;;;0.43;;
60225;SDS011;46090;48.436;11.410;2023-04-25T04:27:00;2.05;;;0.38;;
60225;SDS011;46090;48.436;11.410;2023-04-25T04:29:35;1.98;;;0.43;;
60225;SDS011;46090;48.436;11.410;2023-04-25T04:32:12;1.15;;;0.20;;
60225;SDS011;46090;48.436;11.410;2023-04-25T04:34:39;1.08;;;0.20;;
60225;SDS011;46090;48.436;11.410;2023-04-25T04:37:07;1.25;;;0.20;;
60225;SDS011;46090;48.436;11.410;2023-04-25T04:39:35;3.63;;;0.40;;
60225;SDS011;46090;48.436;11.410;2023-04-25T04:42:25;1.38;;;0.20;;
60225;SDS011;46090;48.436;11.410;2023-04-25T04:44:59;1.23;;;0.30;;
60225;SDS011;46090;48.436;11.410;2023-04-25T04:47:43;1.42;;;0.40;;
60225;SDS011;46090;48.436;11.410;2023-04-25T04:50:35;2.08;;;0.28;;
60225;SDS011;46090;48.436;11.410;2023-04-25T04:56:17;0.82;;;0.20;;
60225;SDS011;46090;48.436;11.410;2023-04-25T04:59:07;2.70;;;0.43;;
60225;SDS011;46090;48.436;11.410;2023-04-25T05:02:00;1.30;;;0.30;;
60225;SDS011;46090;48.436;11.410;2023-04-25T05:04:47;1.15;;;0.20;;
60225;SDS011;46090;48.436;11.410;2023-04-25T05:07:28;1.58;;;0.20;;
60225;SDS011;46090;48.436;11.410;2023-04-25T05:10:08;3.88;;;0.50;;
60225;SDS011;46090;48.436;11.410;2023-04-25T05:12:53;6.50;;;0.98;;
60225;SDS011;46090;48.436;11.410;2023-04-25T05:15:38;2.95;;;0.73;;
60225;SDS011;46090;48.436;11.410;2023-04-25T05:18:18;1.98;;;0.35;;
60225;SDS011;46090;48.436;11.410;2023-04-25T05:21:12;4.93;;;0.40;;
60225;SDS011;46090;48.436;11.410;2023-04-25T05:23:53;4.95;;;0.70;;
60225;SDS011;46090;48.436;11.410;2023-04-25T05:26:43;4.30;;;0.55;;
60225;SDS011;46090;48.436;11.410;2023-04-25T05:29:28;9.95;;;1.25;;
60225;SDS011;46090;48.436;11.410;2023-04-25T05:32:04;3.40;;;0.50;;
60225;SDS011;46090;48.436;11.410;2023-04-25T05:34:31;4.93;;;0.75;;
60225;SDS011;46090;48.436;11.410;2023-04-25T05:37:01;5.55;;;0.98;;
60225;SDS011;46090;48.436;11.410;2023-04-25T05:39:29;5.25;;;0.80;;
60225;SDS011;46090;48.436;11.410;2023-04-25T05:42:07;5.35;;;0.70;;
60225;SDS011;46090;48.436;11.410;2023-04-25T05:45:12;8.90;;;0.88;;
60225;SDS011;46090;48.436;11.410;2023-04-25T05:48:11;6.53;;;1.20;;
60225;SDS011;46090;48.436;11.410;2023-04-25T05:50:56;11.18;;;1.25;;
60225;SDS011;46090;48.436;11.410;2023-04-25T05:53:43;8.35;;;0.98;;
60225;SDS011;46090;48.436;11.410;2023-04-25T05:56:11;6.63;;;0.93;;
60225;SDS011;46090;48.436;11.410;2023-04-25T05:58:39;7.78;;;0.80;;
60225;SDS011;46090;48.436;11.410;2023-04-25T06:01:08;5.10;;;0.70;;
60225;SDS011;46090;48.436;11.410;2023-04-25T06:03:35;10.15;;;0.75;;
60225;SDS011;46090;48.436;11.410;2023-04-25T06:06:04;6.07;;;0.90;;
60225;SDS011;46090;48.436;11.410;2023-04-25T06:08:31;7.60;;;0.68;;
60225;SDS011;46090;48.436;11.410;2023-04-25T06:10:58;5.35;;;0.70;;
60225;SDS011;46090;48.436;11.410;2023-04-25T06:13:25;6.88;;;0.90;;
60225;SDS011;46090;48.436;11.410;2023-04-25T06:15:52;5.00;;;1.00;;
60225;SDS011;46090;48.436;11.410;2023-04-25T06:18:18;7.68;;;1.50;;
60225;SDS011;46090;48.436;11.410;2023-04-25T06:20:45;8.45;;;1.42;;
60225;SDS011;46090;48.436;11.410;2023-04-25T06:23:12;6.75;;;0.95;;
60225;SDS011;46090;48.436;11.410;2023-04-25T06:25:49;6.10;;;0.90;;
60225;SDS011;46090;48.436;11.410;2023-04-25T06:28:16;6.68;;;0.90;;
60225;SDS011;46090;48.436;11.410;2023-04-25T06:30:43;4.38;;;0.70;;
60225;SDS011;46090;48.436;11.410;2023-04-25T06:33:13;7.70;;;0.98;;
60225;SDS011;46090;48.436;11.410;2023-04-25T06:35:40;6.63;;;0.93;;
60225;SDS011;46090;48.436;11.410;2023-04-25T06:38:10;6.10;;;0.85;;
60225;SDS011;46090;48.436;11.410;2023-04-25T06:40:38;7.38;;;1.15;;
60225;SDS011;46090;48.436;11.410;2023-04-25T06:43:07;4.85;;;0.80;;
60225;SDS011;46090;48.436;11.410;2023-04-25T06:45:56;3.30;;;0.70;;
60225;SDS011;46090;48.436;11.410;2023-04-25T06:48:26;4.70;;;0.82;;
60225;SDS011;46090;48.436;11.410;2023-04-25T06:50:53;5.40;;;1.00;;
60225;SDS011;46090;48.436;11.410;2023-04-25T06:53:20;5.00;;;0.77;;
60225;SDS011;46090;48.436;11.410;2023-04-25T06:55:53;11.63;;;1.42;;
60225;SDS011;46090;48.436;11.410;2023-04-25T06:58:21;4.22;;;0.80;;
60225;SDS011;46090;48.436;11.410;2023-04-25T07:01:14;3.38;;;0.50;;
60225;SDS011;46090;48.436;11.410;2023-04-25T07:03:41;4.20;;;0.50;;
60225;SDS011;46090;48.436;11.410;2023-04-25T07:06:14;4.47;;;0.70;;
60225;SDS011;46090;48.436;11.410;2023-04-25T07:08:41;6.35;;;0.88;;
60225;SDS011;46090;48.436;11.410;2023-04-25T07:11:07;3.15;;;0.40;;
60225;SDS011;46090;48.436;11.410;2023-04-25T07:13:35;5.93;;;0.88;;
60225;SDS011;46090;48.436;11.410;2023-04-25T07:16:02;7.93;;;0.90;;
60225;SDS011;46090;48.436;11.410;2023-04-25T07:18:32;5.85;;;0.95;;
60225;SDS011;46090;48.436;11.410;2023-04-25T07:20:59;5.32;;;0.80;;
60225;SDS011;46090;48.436;11.410;2023-04-25T07:23:27;5.90;;;0.80;;
60225;SDS011;46090;48.436;11.410;2023-04-25T07:25:54;5.25;;;0.80;;
60225;SDS011;46090;48.436;11.410;2023-04-25T07:28:24;7.78;;;0.82;;
60225;SDS011;46090;48.436;11.410;2023-04-25T07:30:50;11.20;;;1.30;;
60225;SDS011;46090;48.436;11.410;2023-04-25T07:33:17;5.70;;;0.85;;
60225;SDS011;46090;48.436;11.410;2023-04-25T07:35:46;7.38;;;1.02;;
60225;SDS011;46090;48.436;11.410;2023-04-25T07:38:13;3.45;;;0.52;;
60225;SDS011;46090;48.436;11.410;2023-04-25T07:40:40;5.47;;;0.77;;
60225;SDS011;46090;48.436;11.410;2023-04-25T07:43:08;8.27;;;0.55;;
60225;SDS011;46090;48.436;11.410;2023-04-25T07:45:46;3.53;;;0.55;;
60225;SDS011;46090;48.436;11.410;2023-04-25T07:48:18;3.70;;;0.47;;
60225;SDS011;46090;48.436;11.410;2023-04-25T07:50:46;4.13;;;0.80;;
60225;SDS011;46090;48.436;11.410;2023-04-25T07:53:14;6.68;;;1.08;;
60225;SDS011;46090;48.436;11.410;2023-04-25T07:55:47;7.55;;;0.90;;
60225;SDS011;46090;48.436;11.410;2023-04-25T07:58:15;8.00;;;0.70;;
60225;SDS011;46090;48.436;11.410;2023-04-25T08:00:50;8.73;;;0.70;;
60225;SDS011;46090;48.436;11.410;2023-04-25T08:03:42;14.35;;;0.82;;
60225;SDS011;46090;48.436;11.410;2023-04-25T08:06:17;6.90;;;0.65;;
60225;SDS011;46090;48.436;11.410;2023-04-25T08:08:56;6.38;;;1.23;;
60225;SDS011;46090;48.436;11.410;2023-04-25T08:11:30;11.93;;;1.15;;
60225;SDS011;46090;48.436;11.410;2023-04-25T08:13:57;9.20;;;0.98;;
60225;SDS011;46090;48.436;11.410;2023-04-25T08:16:25;6.63;;;0.82;;
60225;SDS011;46090;48.436;11.410;2023-04-25T08:18:52;11.05;;;1.35;;
60225;SDS011;46090;48.436;11.410;2023-04-25T08:21:19;13.43;;;1.17;;
60225;SDS011;46090;48.436;11.410;2023-04-25T08:23:46;8.07;;;0.80;;
60225;SDS011;46090;48.436;11.410;2023-04-25T08:26:22;8.38;;;1.05;;
60225;SDS011;46090;48.436;11.410;2023-04-25T08:28:49;8.57;;;1.02;;
60225;SDS011;46090;48.436;11.410;2023-04-25T08:31:17;9.23;;;1.00;;
60225;SDS011;46090;48.436;11.410;2023-04-25T08:33:57;3.83;;;0.52;;
60225;SDS011;46090;48.436;11.410;2023-04-25T08:36:32;5.90;;;0.90;;
60225;SDS011;46090;48.436;11.410;2023-04-25T08:39:17;5.40;;;0.90;;
60225;SDS011;46090;48.436;11.410;2023-04-25T08:42:00;6.15;;;0.70;;
60225;SDS011;46090;48.436;11.410;2023-04-25T08:44:30;5.50;;;0.80;;
60225;SDS011;46090;48.436;11.410;2023-04-25T08:46:56;6.40;;;0.88;;
60225;SDS011;46090;48.436;11.410;2023-04-25T08:49:33;6.57;;;0.68;;
60225;SDS011;46090;48.436;11.410;2023-04-25T08:52:02;7.47;;;0.75;;
60225;SDS011;46090;48.436;11.410;2023-04-25T08:54:34;4.72;;;0.85;;
60225;SDS011;46090;48.436;11.410;2023-04-25T08:57:05;8.98;;;1.20;;
60225;SDS011;46090;48.436;11.410;2023-04-25T08:59:32;5.72;;;0.75;;
60225;SDS011;46090;48.436;11.410;2023-04-25T09:02:01;14.38;;;1.95;;
60225;SDS011;46090;48.436;11.410;2023-04-25T09:04:33;8.73;;;1.30;;
60225;SDS011;46090;48.436;11.410;2023-04-25T09:06:59;4.97;;;0.80;;
60225;SDS011;46090;48.436;11.410;2023-04-25T09:09:27;5.80;;;0.60;;
60225;SDS011;46090;48.436;11.410;2023-04-25T09:11:55;6.55;;;0.77;;
60225;SDS011;46090;48.436;11.410;2023-04-25T09:14:24;5.20;;;0.80;;
60225;SDS011;46090;48.436;11.410;2023-04-25T09:17:12;4.75;;;0.75;;
60225;SDS011;46090;48.436;11.410;2023-04-25T09:20:11;6.25;;;0.70;;
60225;SDS011;46090;48.436;11.410;2023-04-25T09:22:39;6.70;;;0.65;;
60225;SDS011;46090;48.436;11.410;2023-04-25T09:25:10;4.55;;;0.50;;
60225;SDS011;46090;48.436;11.410;2023-04-25T09:27:48;7.68;;;0.60;;
60225;SDS011;46090;48.436;11.410;2023-04-25T09:30:31;8.02;;;0.70;;
60225;SDS011;46090;48.436;11.410;2023-04-25T09:33:10;3.65;;;0.60;;
60225;SDS011;46090;48.436;11.410;2023-04-25T09:35:42;5.68;;;0.80;;
60225;SDS011;46090;48.436;11.410;2023-04-25T09:38:17;2.75;;;0.47;;
60225;SDS011;46090;48.436;11.410;2023-04-25T09:40:56;3.95;;;0.50;;
60225;SDS011;46090;48.436;11.410;2023-04-25T09:43:32;5.35;;;0.52;;
60225;SDS011;46090;48.436;11.410;2023-04-25T09:45:59;7.25;;;0.77;;
60225;SDS011;46090;48.436;11.410;2023-04-25T09:48:29;1.38;;;0.30;;
60225;SDS011;46090;48.436;11.410;2023-04-25T09:53:38;5.07;;;0.55;;
60225;SDS011;46090;48.436;11.410;2023-04-25T09:56:24;2.50;;;0.45;;
60225;SDS011;46090;48.436;11.410;2023-04-25T09:58:53;2.47;;;0.40;;
60225;SDS011;46090;48.436;11.410;2023-04-25T10:01:21;1.23;;;0.28;;
60225;SDS011;46090;48.436;11.410;2023-04-25T10:04:06;2.70;;;0.47;;
60225;SDS011;46090;48.436;11.410;2023-04-25T10:06:51;4.18;;;0.40;;
60225;SDS011;46090;48.436;11.410;2023-04-25T10:09:20;2.90;;;0.50;;
60225;SDS011;46090;48.436;11.410;2023-04-25T10:11:47;3.42;;;0.38;;
60225;SDS011;46090;48.436;11.410;2023-04-25T10:14:14;4.05;;;0.70;;
60225;SDS011;46090;48.436;11.410;2023-04-25T10:16:41;3.45;;;0.60;;
60225;SDS011;46090;48.436;11.410;2023-04-25T10:19:09;4.55;;;0.30;;
60225;SDS011;46090;48.436;11.410;2023-04-25T10:21:37;3.50;;;0.60;;
60225;SDS011;46090;48.436;11.410;2023-04-25T10:24:11;3.15;;;0.47;;
60225;SDS011;46090;48.436;11.410;2023-04-25T10:26:38;2.25;;;0.30;;
60225;SDS011;46090;48.436;11.410;2023-04-25T10:29:05;4.30;;;0.50;;
60225;SDS011;46090;48.436;11.410;2023-04-25T10:31:31;4.47;;;0.50;;
60225;SDS011;46090;48.436;11.410;2023-04-25T10:33:59;2.50;;;0.43;;
60225;SDS011;46090;48.436;11.410;2023-04-25T10:36:26;3.05;;;0.35;;
60225;SDS011;46090;48.436;11.410;2023-04-25T10:38:58;5.30;;;0.82;;
60225;SDS011;46090;48.436;11.410;2023-04-25T10:44:11;1.70;;;0.30;;
60225;SDS011;46090;48.436;11.410;2023-04-25T10:46:38;4.32;;;0.43;;
60225;SDS011;46090;48.436;11.410;2023-04-25T10:49:04;2.08;;;0.22;;
60225;SDS011;46090;48.436;11.410;2023-04-25T10:51:32;2.42;;;0.30;;
60225;SDS011;46090;48.436;11.410;2023-04-25T10:54:19;2.65;;;0.50;;
60225;SDS011;46090;48.436;11.410;2023-04-25T10:56:48;5.35;;;0.40;;
60225;SDS011;46090;48.436;11.410;2023-04-25T10:59:15;4.05;;;0.50;;
60225;SDS011;46090;48.436;11.410;2023-04-25T11:01:43;3.00;;;0.40;;
60225;SDS011;46090;48.436;11.410;2023-04-25T11:04:19;2.53;;;0.30;;
60225;SDS011;46090;48.436;11.410;2023-04-25T11:09:34;2.45;;;0.45;;
60225;SDS011;46090;48.436;11.410;2023-04-25T11:12:02;4.78;;;0.43;;
60225;SDS011;46090;48.436;11.410;2023-04-25T11:14:28;3.55;;;0.40;;
60225;SDS011;46090;48.436;11.410;2023-04-25T11:16:56;2.58;;;0.38;;
60225;SDS011;46090;48.436;11.410;2023-04-25T11:19:26;3.17;;;0.38;;
60225;SDS011;46090;48.436;11.410;2023-04-25T11:21:57;2.35;;;0.40;;
60225;SDS011;46090;48.436;11.410;2023-04-25T11:24:32;2.65;;;0.30;;
60225;SDS011;46090;48.436;11.410;2023-04-25T11:27:01;3.60;;;0.40;;
60225;SDS011;46090;48.436;11.410;2023-04-25T11:29:32;2.53;;;0.40;;
60225;SDS011;46090;48.436;11.410;2023-04-25T11:32:00;3.42;;;0.30;;
60225;SDS011;46090;48.436;11.410;2023-04-25T11:34:31;12.15;;;0.98;;
60225;SDS011;46090;48.436;11.410;2023-04-25T11:37:00;3.90;;;0.40;;
60225;SDS011;46090;48.436;11.410;2023-04-25T11:39:28;4.15;;;0.40;;
60225;SDS011;46090;48.436;11.410;2023-04-25T11:41:56;1.67;;;0.20;;
60225;SDS011;46090;48.436;11.410;2023-04-25T11:44:23;1.88;;;0.20;;
60225;SDS011;46090;48.436;11.410;2023-04-25T11:46:50;3.88;;;0.65;;
60225;SDS011;46090;48.436;11.410;2023-04-25T11:49:17;3.97;;;0.68;;
60225;SDS011;46090;48.436;11.410;2023-04-25T11:51:45;10.20;;;0.70;;
60225;SDS011;46090;48.436;11.410;2023-04-25T11:54:13;2.90;;;0.40;;
60225;SDS011;46090;48.436;11.410;2023-04-25T11:56:41;5.72;;;0.73;;
60225;SDS011;46090;48.436;11.410;2023-04-25T11:59:09;2.60;;;0.30;;
60225;SDS011;46090;48.436;11.410;2023-04-25T12:01:38;7.00;;;0.60;;
60225;SDS011;46090;48.436;11.410;2023-04-25T12:06:40;18.95;;;1.50;;
60225;SDS011;46090;48.436;11.410;2023-04-25T12:09:09;6.50;;;0.63;;
60225;SDS011;46090;48.436;11.410;2023-04-25T12:16:57;3.95;;;0.75;;
60225;SDS011;46090;48.436;11.410;2023-04-25T12:19:30;7.68;;;0.60;;
60225;SDS011;46090;48.436;11.410;2023-04-25T12:22:00;5.28;;;0.70;;
60225;SDS011;46090;48.436;11.410;2023-04-25T12:24:27;4.28;;;0.60;;
60225;SDS011;46090;48.436;11.410;2023-04-25T12:27:01;6.20;;;1.10;;
60225;SDS011;46090;48.436;11.410;2023-04-25T12:29:30;7.18;;;0.93;;
60225;SDS011;46090;48.436;11.410;2023-04-25T12:32:13;6.78;;;0.45;;
60225;SDS011;46090;48.436;11.410;2023-04-25T12:34:40;6.18;;;0.40;;
60225;SDS011;46090;48.436;11.410;2023-04-25T12:37:06;5.47;;;0.85;;
60225;SDS011;46090;48.436;11.410;2023-04-25T12:39:33;4.95;;;0.68;;
60225;SDS011;46090;48.436;11.410;2023-04-25T12:42:00;5.50;;;0.73;;
60225;SDS011;46090;48.436;11.410;2023-04-25T12:44:27;9.63;;;1.08;;
60225;SDS011;46090;48.436;11.410;2023-04-25T12:46:53;44.50;;;2.33;;
60225;SDS011;46090;48.436;11.410;2023-04-25T12:49:21;7.65;;;0.80;;
60225;SDS011;46090;48.436;11.410;2023-04-25T12:51:48;6.30;;;1.00;;
60225;SDS011;46090;48.436;11.410;2023-04-25T12:54:15;7.57;;;0.63;;
60225;SDS011;46090;48.436;11.410;2023-04-25T12:56:42;4.32;;;0.73;;
60225;SDS011;46090;48.436;11.410;2023-04-25T12:59:08;5.90;;;1.02;;
60225;SDS011;46090;48.436;11.410;2023-04-25T13:01:35;7.93;;;0.60;;
60225;SDS011;46090;48.436;11.410;2023-04-25T13:04:02;4.20;;;0.60;;
60225;SDS011;46090;48.436;11.410;2023-04-25T13:06:29;4.85;;;0.60;;
60225;SDS011;46090;48.436;11.410;2023-04-25T13:08:57;4.57;;;0.65;;
60225;SDS011;46090;48.436;11.410;2023-04-25T13:11:24;4.78;;;0.50;;
60225;SDS011;46090;48.436;11.410;2023-04-25T13:13:50;3.92;;;0.40;;
60225;SDS011;46090;48.436;11.410;2023-04-25T13:16:18;3.60;;;0.50;;
60225;SDS011;46090;48.436;11.410;2023-04-25T13:18:47;4.85;;;0.40;;
60225;SDS011;46090;48.436;11.410;2023-04-25T13:21:13;2.92;;;0.40;;
60225;SDS011;46090;48.436;11.410;2023-04-25T13:23:40;6.20;;;0.70;;
60225;SDS011;46090;48.436;11.410;2023-04-25T13:26:09;5.30;;;0.60;;
60225;SDS011;46090;48.436;11.410;2023-04-25T13:28:35;5.25;;;0.65;;
60225;SDS011;46090;48.436;11.410;2023-04-25T13:31:02;4.28;;;0.50;;
60225;SDS011;46090;48.436;11.410;2023-04-25T13:33:29;3.35;;;0.55;;
60225;SDS011;46090;48.436;11.410;2023-04-25T13:35:56;6.63;;;0.43;;
60225;SDS011;46090;48.436;11.410;2023-04-25T13:38:23;4.43;;;0.38;;
60225;SDS011;46090;48.436;11.410;2023-04-25T13:40:50;5.05;;;0.40;;
60225;SDS011;46090;48.436;11.410;2023-04-25T13:43:19;3.53;;;0.60;;
60225;SDS011;46090;48.436;11.410;2023-04-25T13:45:47;4.10;;;0.50;;
60225;SDS011;46090;48.436;11.410;2023-04-25T13:48:15;5.03;;;0.70;;
60225;SDS011;46090;48.436;11.410;2023-04-25T13:50:41;4.25;;;0.63;;
60225;SDS011;46090;48.436;11.410;2023-04-25T13:53:08;5.03;;;0.68;;
60225;SDS011;46090;48.436;11.410;2023-04-25T13:55:35;3.97;;;0.40;;
60225;SDS011;46090;48.436;11.410;2023-04-25T13:58:03;4.68;;;0.60;;
60225;SDS011;46090;48.436;11.410;2023-04-25T14:00:37;6.57;;;0.70;;
60225;SDS011;46090;48.436;11.410;2023-04-25T14:03:05;3.25;;;0.60;;
60225;SDS011;46090;48.436;11.410;2023-04-25T14:05:35;3.25;;;0.77;;
60225;SDS011;46090;48.436;11.410;2023-04-25T14:08:07;3.92;;;0.50;;
60225;SDS011;46090;48.436;11.410;2023-04-25T14:10:35;5.70;;;0.50;;
60225;SDS011;46090;48.436;11.410;2023-04-25T14:13:02;6.32;;;0.50;;
60225;SDS011;46090;48.436;11.410;2023-04-25T14:15:33;6.93;;;0.68;;
60225;SDS011;46090;48.436;11.410;2023-04-25T14:18:00;5.88;;;0.40;;
60225;SDS011;46090;48.436;11.410;2023-04-25T14:20:27;7.43;;;0.70;;
60225;SDS011;46090;48.436;11.410;2023-04-25T14:22:54;4.15;;;0.50;;
60225;SDS011;46090;48.436;11.410;2023-04-25T14:25:22;3.78;;;0.60;;
60225;SDS011;46090;48.436;11.410;2023-04-25T14:27:49;4.47;;;0.85;;
60225;SDS011;46090;48.436;11.410;2023-04-25T14:30:17;3.75;;;0.52;;
60225;SDS011;46090;48.436;11.410;2023-04-25T14:32:45;10.40;;;1.00;;
60225;SDS011;46090;48.436;11.410;2023-04-25T14:35:12;5.90;;;0.90;;
60225;SDS011;46090;48.436;11.410;2023-04-25T14:37:39;6.43;;;0.73;;
60225;SDS011;46090;48.436;11.410;2023-04-25T14:40:06;8.65;;;0.85;;
60225;SDS011;46090;48.436;11.410;2023-04-25T14:42:36;11.10;;;0.93;;
60225;SDS011;46090;48.436;11.410;2023-04-25T14:45:04;8.98;;;1.00;;
60225;SDS011;46090;48.436;11.410;2023-04-25T14:47:31;14.15;;;1.35;;
60225;SDS011;46090;48.436;11.410;2023-04-25T14:49:58;3.50;;;0.68;;
60225;SDS011;46090;48.436;11.410;2023-04-25T14:52:25;9.18;;;1.00;;
60225;SDS011;46090;48.436;11.410;2023-04-25T14:54:52;12.82;;;1.58;;
60225;SDS011;46090;48.436;11.410;2023-04-25T14:57:18;14.98;;;1.17;;
60225;SDS011;46090;48.436;11.410;2023-04-25T14:59:45;9.65;;;1.23;;
60225;SDS011;46090;48.436;11.410;2023-04-25T15:02:12;15.90;;;1.48;;
60225;SDS011;46090;48.436;11.410;2023-04-25T15:04:39;11.18;;;0.80;;
60225;SDS011;46090;48.436;11.410;2023-04-25T15:07:06;10.00;;;1.08;;
60225;SDS011;46090;48.436;11.410;2023-04-25T15:09:32;15.25;;;1.85;;
60225;SDS011;46090;48.436;11.410;2023-04-25T15:11:59;14.75;;;1.90;;